createdAt,value
2018-11-04T00:02:25.965Z,12.57
2018-11-04T00:04:54.111Z,11.97
2018-11-04T00:07:22.278Z,12.10
2018-11-04T00:09:50.419Z,12.53
2018-11-04T00:12:18.582Z,12.63
2018-11-04T00:14:46.756Z,11.80
2018-11-04T00:17:14.886Z,12.20
2018-11-04T00:19:43.079Z,13.20
2018-11-04T00:22:11.197Z,12.20
2018-11-04T00:24:39.322Z,11.17
2018-11-04T00:27:14.174Z,11.03
2018-11-04T00:29:42.336Z,11.57
2018-11-04T00:32:10.458Z,11.30
2018-11-04T00:34:38.588Z,13.83
2018-11-04T00:37:07.066Z,11.47
2018-11-04T00:39:35.193Z,10.50
2018-11-04T00:42:03.341Z,13.43
2018-11-04T00:44:31.486Z,11.77
2018-11-04T00:46:59.597Z,11.93
2018-11-04T00:49:27.995Z,11.13
2018-11-04T00:51:56.114Z,12.70
2018-11-04T00:54:31.019Z,11.77
2018-11-04T00:56:59.145Z,12.00
2018-11-04T00:59:27.293Z,10.40
2018-11-04T01:01:55.445Z,10.67
2018-11-04T01:04:23.590Z,10.90
2018-11-04T01:06:51.725Z,11.20
2018-11-04T01:09:19.886Z,11.03
2018-11-04T01:11:48.005Z,10.07
2018-11-04T01:14:16.127Z,11.73
2018-11-04T01:16:44.253Z,12.87
2018-11-04T01:19:12.454Z,11.00
2018-11-04T01:21:40.587Z,10.90
2018-11-04T01:24:08.743Z,10.63
2018-11-04T01:26:36.863Z,11.73
2018-11-04T01:29:05.265Z,12.67
2018-11-04T01:31:33.409Z,10.77
2018-11-04T01:34:01.555Z,10.93
2018-11-04T01:36:29.691Z,10.13
2018-11-04T01:38:58.150Z,10.50
2018-11-04T01:41:26.282Z,10.10
2018-11-04T01:43:54.413Z,12.10
2018-11-04T01:46:22.550Z,12.73
2018-11-04T01:48:50.678Z,12.50
2018-11-04T01:51:18.813Z,12.43
2018-11-04T01:53:47.281Z,10.83
2018-11-04T01:56:15.405Z,10.83
2018-11-04T01:58:43.525Z,11.47
2018-11-04T02:01:11.667Z,10.87
2018-11-04T02:03:40.117Z,11.00
2018-11-04T02:06:08.249Z,12.40
2018-11-04T02:08:36.407Z,12.20
2018-11-04T02:11:04.718Z,14.13
2018-11-04T02:13:32.843Z,13.77
2018-11-04T02:16:01.003Z,12.43
2018-11-04T02:18:29.141Z,12.83
2018-11-04T02:20:57.260Z,13.40
2018-11-04T02:23:25.385Z,12.57
2018-11-04T02:25:53.565Z,12.53
2018-11-04T02:28:21.706Z,11.00
2018-11-04T02:30:49.847Z,11.53
2018-11-04T02:33:17.979Z,10.67
2018-11-04T02:35:46.130Z,11.13
2018-11-04T02:38:14.581Z,13.10
2018-11-04T02:40:42.755Z,12.70
2018-11-04T02:43:10.882Z,12.53
2018-11-04T02:45:39.034Z,12.67
2018-11-04T02:48:07.159Z,14.20
2018-11-04T02:50:35.285Z,12.97
2018-11-04T02:53:03.439Z,13.97
2018-11-04T02:55:31.551Z,12.27
2018-11-04T02:57:59.691Z,13.33
2018-11-04T03:00:27.813Z,13.63
2018-11-04T03:02:55.962Z,12.17
2018-11-04T03:05:24.102Z,13.07
2018-11-04T03:07:52.226Z,12.07
2018-11-04T03:10:20.369Z,13.33
2018-11-04T03:12:48.512Z,12.50
2018-11-04T03:15:16.650Z,13.70
2018-11-04T03:17:44.805Z,14.27
2018-11-04T03:20:12.955Z,13.97
2018-11-04T03:22:41.201Z,14.50
2018-11-04T03:25:09.322Z,13.77
2018-11-04T03:27:37.470Z,12.63
2018-11-04T03:30:06.782Z,12.47
2018-11-04T03:32:34.917Z,11.93
2018-11-04T03:35:03.053Z,14.10
2018-11-04T03:37:31.191Z,13.47
2018-11-04T03:39:59.310Z,13.73
2018-11-04T03:42:27.459Z,14.33
2018-11-04T03:44:55.605Z,12.37
2018-11-04T03:47:23.780Z,12.73
2018-11-04T03:49:51.897Z,11.67
2018-11-04T03:52:20.030Z,12.80
2018-11-04T03:54:48.184Z,12.83
2018-11-04T03:57:16.315Z,15.27
2018-11-04T03:59:44.454Z,13.77
2018-11-04T04:02:12.570Z,13.63
2018-11-04T04:04:40.719Z,13.53
2018-11-04T04:07:08.836Z,12.67
2018-11-04T04:09:36.975Z,13.20
2018-11-04T04:12:05.733Z,12.30
2018-11-04T04:14:34.199Z,14.00
2018-11-04T04:17:02.352Z,14.17
2018-11-04T04:19:30.482Z,14.10
2018-11-04T04:21:58.620Z,12.23
2018-11-04T04:24:27.054Z,14.47
2018-11-04T04:26:55.180Z,14.20
2018-11-04T04:29:23.429Z,13.07
2018-11-04T04:31:51.599Z,12.50
2018-11-04T04:34:19.722Z,14.83
2018-11-04T04:36:47.857Z,14.90
2018-11-04T04:39:16.010Z,14.30
2018-11-04T04:41:44.161Z,13.97
2018-11-04T04:44:12.319Z,15.43
2018-11-04T04:46:40.439Z,13.73
2018-11-04T04:49:08.578Z,14.20
2018-11-04T04:51:36.710Z,14.30
2018-11-04T04:54:05.346Z,13.30
2018-11-04T04:56:33.469Z,12.83
2018-11-04T04:59:01.607Z,15.03
2018-11-04T05:01:30.086Z,13.83
2018-11-04T05:03:58.230Z,14.83
2018-11-04T05:06:26.850Z,16.97
2018-11-04T05:08:55.298Z,14.33
2018-11-04T05:11:23.571Z,14.60
2018-11-04T05:13:51.982Z,14.97
2018-11-04T05:16:20.127Z,15.27
2018-11-04T05:18:48.245Z,14.77
2018-11-04T05:21:16.402Z,15.20
2018-11-04T05:23:44.545Z,15.63
2018-11-04T05:26:12.969Z,16.53
2018-11-04T05:28:41.093Z,15.63
2018-11-04T05:31:09.219Z,16.27
2018-11-04T05:33:37.361Z,15.23
2018-11-04T05:36:05.501Z,16.43
2018-11-04T05:38:33.639Z,15.77
2018-11-04T05:41:01.785Z,15.97
2018-11-04T05:43:29.936Z,16.70
2018-11-04T05:45:58.274Z,16.53
2018-11-04T05:48:26.403Z,14.93
2018-11-04T05:50:54.530Z,17.33
2018-11-04T05:53:22.675Z,20.23
2018-11-04T05:55:50.806Z,19.73
2018-11-04T05:58:18.941Z,18.10
2018-11-04T06:00:47.080Z,16.97
2018-11-04T06:03:15.536Z,18.57
2018-11-04T06:05:43.682Z,17.57
2018-11-04T06:08:11.842Z,15.70
2018-11-04T06:10:39.970Z,19.93
2018-11-04T06:13:08.121Z,21.63
2018-11-04T06:15:36.238Z,19.60
2018-11-04T06:18:04.407Z,19.80
2018-11-04T06:20:32.554Z,22.00
2018-11-04T06:23:00.690Z,19.63
2018-11-04T06:25:28.825Z,20.20
2018-11-04T06:27:56.961Z,20.80
2018-11-04T06:30:25.111Z,20.93
2018-11-04T06:32:53.268Z,21.87
2018-11-04T06:35:21.405Z,21.70
2018-11-04T06:37:49.533Z,21.37
2018-11-04T06:40:24.461Z,22.80
2018-11-04T06:42:52.606Z,21.97
2018-11-04T06:45:20.745Z,20.10
2018-11-04T06:47:48.886Z,20.60
2018-11-04T06:50:17.091Z,19.57
2018-11-04T06:52:45.211Z,20.70
2018-11-04T06:55:13.353Z,19.83
2018-11-04T06:57:41.826Z,19.93
2018-11-04T07:00:11.063Z,17.80
2018-11-04T07:02:39.627Z,21.77
2018-11-04T07:05:07.802Z,22.23
2018-11-04T07:07:35.954Z,20.17
2018-11-04T07:10:04.306Z,18.67
2018-11-04T07:12:32.742Z,18.60
2018-11-04T07:15:00.865Z,20.40
2018-11-04T07:17:28.985Z,20.93
2018-11-04T07:19:57.191Z,24.33
2018-11-04T07:22:25.295Z,23.27
2018-11-04T07:24:53.452Z,20.93
2018-11-04T07:27:21.599Z,21.37
2018-11-04T07:29:49.726Z,22.43
2018-11-04T07:32:17.887Z,21.80
2018-11-04T07:34:46.341Z,20.40
2018-11-04T07:37:14.471Z,22.73
2018-11-04T07:39:42.603Z,20.83
2018-11-04T07:42:10.744Z,21.80
2018-11-04T07:44:38.875Z,20.53
2018-11-04T07:47:07.050Z,21.33
2018-11-04T07:49:35.169Z,22.40
2018-11-04T07:52:03.298Z,20.67
2018-11-04T07:54:31.465Z,21.47
2018-11-04T07:56:59.620Z,20.43
2018-11-04T07:59:27.789Z,21.77
2018-11-04T08:01:55.926Z,22.17
2018-11-04T08:04:24.071Z,19.87
2018-11-04T08:06:52.212Z,20.20
2018-11-04T08:09:20.354Z,21.67
2018-11-04T08:11:48.505Z,20.33
2018-11-04T08:14:16.655Z,20.43
2018-11-04T08:16:44.761Z,20.07
2018-11-04T08:19:15.169Z,20.47
2018-11-04T08:21:43.465Z,19.73
2018-11-04T08:24:11.666Z,19.23
2018-11-04T08:26:39.862Z,19.93
2018-11-04T08:29:08.024Z,20.63
2018-11-04T08:31:36.170Z,19.27
2018-11-04T08:34:04.470Z,18.33
2018-11-04T08:36:32.832Z,18.50
2018-11-04T08:39:01.022Z,18.40
2018-11-04T08:41:29.202Z,16.00
2018-11-04T08:43:57.465Z,17.50
2018-11-04T08:46:25.611Z,17.43
2018-11-04T08:48:53.736Z,18.30
2018-11-04T08:51:21.913Z,17.77
2018-11-04T08:53:50.063Z,18.40
2018-11-04T08:56:18.973Z,16.87
2018-11-04T08:58:47.126Z,18.33
2018-11-04T09:01:16.386Z,19.23
2018-11-04T09:03:44.537Z,17.70
2018-11-04T09:06:12.686Z,17.80
2018-11-04T09:08:40.853Z,18.83
2018-11-04T09:11:08.993Z,18.33
2018-11-04T09:13:39.035Z,18.33
2018-11-04T09:16:07.178Z,17.23
2018-11-04T09:18:35.328Z,16.77
2018-11-04T09:21:03.475Z,16.00
2018-11-04T09:23:31.629Z,16.73
2018-11-04T09:25:59.798Z,18.83
2018-11-04T09:28:27.942Z,17.53
2018-11-04T09:30:56.090Z,15.30
2018-11-04T09:33:24.241Z,16.00
2018-11-04T09:35:52.513Z,16.37
2018-11-04T09:38:20.523Z,15.47
2018-11-04T09:40:48.672Z,15.67
2018-11-04T09:43:16.793Z,16.20
2018-11-04T09:45:44.969Z,16.40
2018-11-04T09:48:13.101Z,16.70
2018-11-04T09:50:41.244Z,15.93
2018-11-04T09:53:09.392Z,17.20
2018-11-04T09:55:37.551Z,15.90
2018-11-04T09:58:08.750Z,16.50
2018-11-04T10:00:36.897Z,15.53
2018-11-04T10:03:05.420Z,16.67
2018-11-04T10:05:33.573Z,15.87
2018-11-04T10:08:01.819Z,16.10
2018-11-04T10:10:30.014Z,17.03
2018-11-04T10:12:58.451Z,15.63
2018-11-04T10:15:26.605Z,16.47
2018-11-04T10:17:54.773Z,17.17
2018-11-04T10:20:23.094Z,15.33
2018-11-04T10:22:51.072Z,16.90
2018-11-04T10:25:19.248Z,17.83
2018-11-04T10:27:47.398Z,17.90
2018-11-04T10:30:16.675Z,18.27
2018-11-04T10:32:44.998Z,17.57
2018-11-04T10:35:13.174Z,19.03
2018-11-04T10:37:41.959Z,19.17
2018-11-04T10:40:11.297Z,18.67
2018-11-04T10:42:39.445Z,20.70
2018-11-04T10:45:08.534Z,21.23
2018-11-04T10:47:36.701Z,21.17
2018-11-04T10:50:06.345Z,20.87
2018-11-04T10:52:34.502Z,23.30
2018-11-04T10:55:02.674Z,22.50
2018-11-04T10:57:30.830Z,22.83
2018-11-04T10:59:59.010Z,22.43
2018-11-04T11:02:27.186Z,21.67
2018-11-04T11:04:55.359Z,21.03
2018-11-04T11:07:23.568Z,21.37
2018-11-04T11:09:51.737Z,21.87
2018-11-04T11:12:19.883Z,20.53
2018-11-04T11:14:48.088Z,22.03
2018-11-04T11:17:16.221Z,21.70
2018-11-04T11:19:44.381Z,21.37
2018-11-04T11:22:12.546Z,21.57
2018-11-04T11:24:40.705Z,21.27
2018-11-04T11:27:08.896Z,20.07
2018-11-04T11:29:37.086Z,21.27
2018-11-04T11:32:05.344Z,20.60
2018-11-04T11:34:33.470Z,20.10
2018-11-04T11:37:01.633Z,19.77
2018-11-04T11:39:29.838Z,21.23
2018-11-04T11:41:58.022Z,19.93
2018-11-04T11:44:26.202Z,19.87
2018-11-04T11:46:54.369Z,20.57
2018-11-04T11:49:22.610Z,21.00
2018-11-04T11:51:50.801Z,19.57
2018-11-04T11:54:18.957Z,21.10
2018-11-04T11:56:47.371Z,19.50
2018-11-04T11:59:15.519Z,18.87
2018-11-04T12:01:43.713Z,20.27
2018-11-04T12:04:12.137Z,19.10
2018-11-04T12:06:40.354Z,20.80
2018-11-04T12:09:09.149Z,18.87
2018-11-04T12:11:37.675Z,19.00
2018-11-04T12:14:05.890Z,19.57
2018-11-04T12:16:34.031Z,18.60
2018-11-04T12:19:02.208Z,17.13
2018-11-04T12:21:30.445Z,18.67
2018-11-04T12:23:58.585Z,19.03
2018-11-04T12:26:26.760Z,19.83
2018-11-04T12:28:54.917Z,19.10
2018-11-04T12:31:23.142Z,17.97
2018-11-04T12:33:51.321Z,17.40
2018-11-04T12:36:19.588Z,18.50
2018-11-04T12:38:47.758Z,16.73
2018-11-04T12:41:15.893Z,16.67
2018-11-04T12:43:44.057Z,15.97
2018-11-04T12:46:12.299Z,16.27
2018-11-04T12:48:40.747Z,17.70
2018-11-04T12:51:09.016Z,16.87
2018-11-04T12:53:37.171Z,16.00
2018-11-04T12:56:05.647Z,17.00
2018-11-04T12:58:33.833Z,15.60
2018-11-04T13:01:01.979Z,16.13
2018-11-04T13:03:30.153Z,16.40
2018-11-04T13:05:58.339Z,15.93
2018-11-04T13:08:26.473Z,15.93
2018-11-04T13:10:54.660Z,15.17
2018-11-04T13:13:22.798Z,15.20
2018-11-04T13:15:50.954Z,15.53
2018-11-04T13:18:19.093Z,15.67
2018-11-04T13:20:47.242Z,14.60
2018-11-04T13:23:15.422Z,15.03
2018-11-04T13:25:43.565Z,14.77
2018-11-04T13:28:11.750Z,14.17
2018-11-04T13:30:39.918Z,13.87
2018-11-04T13:33:08.073Z,14.10
2018-11-04T13:35:36.218Z,13.27
2018-11-04T13:38:04.395Z,13.70
2018-11-04T13:40:32.555Z,12.80
2018-11-04T13:43:00.786Z,13.70
2018-11-04T13:45:29.099Z,13.43
2018-11-04T13:47:57.261Z,12.20
2018-11-04T13:50:25.434Z,13.53
2018-11-04T13:52:53.589Z,11.67
2018-11-04T13:55:21.709Z,12.20
2018-11-04T13:57:49.885Z,12.10
2018-11-04T14:00:18.241Z,13.27
2018-11-04T14:02:47.753Z,13.00
2018-11-04T14:05:15.925Z,12.20
2018-11-04T14:07:44.090Z,12.33
2018-11-04T14:10:13.708Z,12.63
2018-11-04T14:12:42.623Z,12.33
2018-11-04T14:15:11.070Z,12.13
2018-11-04T14:17:40.161Z,11.97
2018-11-04T14:20:09.467Z,12.63
2018-11-04T14:22:37.821Z,12.93
2018-11-04T14:25:06.691Z,12.30
2018-11-04T14:27:34.880Z,12.07
2018-11-04T14:30:03.058Z,13.20
2018-11-04T14:32:31.219Z,13.07
2018-11-04T14:34:59.450Z,12.87
2018-11-04T14:37:27.627Z,11.77
2018-11-04T14:39:55.762Z,13.10
2018-11-04T14:42:23.927Z,12.47
2018-11-04T14:44:52.117Z,13.70
2018-11-04T14:47:20.248Z,13.40
2018-11-04T14:49:48.409Z,13.17
2018-11-04T14:52:16.582Z,13.27
2018-11-04T14:54:44.731Z,13.60
2018-11-04T14:57:12.898Z,13.63
2018-11-04T14:59:41.112Z,14.07
2018-11-04T15:02:09.218Z,14.73
2018-11-04T15:04:37.369Z,14.67
2018-11-04T15:07:06.151Z,13.23
2018-11-04T15:09:34.327Z,14.30
2018-11-04T15:12:02.519Z,14.60
2018-11-04T15:14:30.694Z,14.27
2018-11-04T15:16:58.833Z,15.23
2018-11-04T15:19:26.973Z,15.07
2018-11-04T15:21:55.175Z,15.60
2018-11-04T15:24:23.487Z,13.97
2018-11-04T15:26:51.695Z,15.53
2018-11-04T15:29:19.846Z,15.83
2018-11-04T15:31:48.071Z,15.17
2018-11-04T15:34:16.297Z,15.90
2018-11-04T15:36:44.414Z,14.63
2018-11-04T15:39:30.029Z,15.10
2018-11-04T15:41:58.174Z,15.77
2018-11-04T15:44:29.831Z,16.47
2018-11-04T15:46:57.991Z,15.40
2018-11-04T15:49:26.113Z,16.40
2018-11-04T15:51:54.953Z,16.07
2018-11-04T15:54:23.180Z,15.97
2018-11-04T15:56:51.352Z,15.97
2018-11-04T15:59:19.539Z,15.53
2018-11-04T16:01:47.702Z,15.90
2018-11-04T16:04:15.940Z,15.63
2018-11-04T16:06:44.030Z,15.87
2018-11-04T16:09:12.201Z,14.77
2018-11-04T16:11:40.343Z,14.40
2018-11-04T16:14:08.497Z,15.57
2018-11-04T16:16:36.662Z,15.83
2018-11-04T16:19:04.802Z,15.30
2018-11-04T16:21:32.970Z,15.67
2018-11-04T16:24:01.137Z,14.83
2018-11-04T16:26:29.330Z,15.60
2018-11-04T16:28:57.611Z,16.33
2018-11-04T16:31:25.750Z,15.37
2018-11-04T16:33:53.935Z,14.83
2018-11-04T16:36:22.062Z,15.33
2018-11-04T16:38:50.250Z,15.17
2018-11-04T16:41:18.627Z,14.50
2018-11-04T16:43:46.843Z,14.87
2018-11-04T16:46:14.968Z,14.37
2018-11-04T16:48:43.157Z,15.43
2018-11-04T16:51:11.455Z,15.57
2018-11-04T16:53:39.637Z,14.50
2018-11-04T16:56:07.995Z,15.20
2018-11-04T16:58:36.287Z,14.53
2018-11-04T17:01:05.010Z,15.10
2018-11-04T17:03:33.195Z,15.50
2018-11-04T17:06:01.394Z,14.63
2018-11-04T17:08:29.555Z,15.30
2018-11-04T17:10:57.975Z,23.13
2018-11-04T17:13:26.270Z,18.83
2018-11-04T17:15:54.489Z,15.80
2018-11-04T17:18:23.101Z,15.50
2018-11-04T17:20:51.319Z,15.57
2018-11-04T17:23:19.832Z,15.47
2018-11-04T17:25:47.996Z,16.13
2018-11-04T17:28:16.220Z,15.57
2018-11-04T17:30:44.393Z,16.17
2018-11-04T17:33:12.547Z,14.30
2018-11-04T17:35:40.693Z,15.10
2018-11-04T17:38:08.959Z,15.57
2018-11-04T17:40:37.122Z,15.70
2018-11-04T17:43:05.597Z,17.50
2018-11-04T17:45:33.842Z,19.23
2018-11-04T17:48:07.086Z,17.30
2018-11-04T17:50:35.342Z,18.27
2018-11-04T17:53:03.579Z,24.43
2018-11-04T17:55:42.683Z,20.17
2018-11-04T17:58:10.842Z,16.97
2018-11-04T18:00:39.078Z,17.17
2018-11-04T18:03:07.213Z,16.37
2018-11-04T18:05:35.426Z,16.50
2018-11-04T18:08:03.710Z,17.67
2018-11-04T18:10:31.983Z,15.33
2018-11-04T18:13:03.389Z,16.33
2018-11-04T18:15:31.897Z,15.87
2018-11-04T18:18:00.068Z,15.37
2018-11-04T18:20:28.354Z,15.73
2018-11-04T18:22:56.782Z,14.87
2018-11-04T18:25:24.946Z,14.93
2018-11-04T18:27:53.095Z,15.83
2018-11-04T18:30:21.246Z,15.80
2018-11-04T18:32:49.399Z,17.67
2018-11-04T18:35:17.573Z,18.27
2018-11-04T18:37:45.727Z,17.73
2018-11-04T18:40:15.450Z,15.43
2018-11-04T18:42:44.249Z,14.93
2018-11-04T18:45:13.814Z,18.37
2018-11-04T18:47:42.447Z,16.70
2018-11-04T18:50:11.908Z,16.67
2018-11-04T18:52:40.118Z,16.20
2018-11-04T18:55:09.350Z,16.93
2018-11-04T18:57:37.554Z,15.70
2018-11-04T19:00:07.670Z,18.17
2018-11-04T19:02:35.825Z,15.97
2018-11-04T19:05:04.302Z,16.77
2018-11-04T19:07:32.492Z,17.43
2018-11-04T19:10:00.676Z,16.83
2018-11-04T19:12:28.843Z,18.27
2018-11-04T19:14:56.974Z,18.40
2018-11-04T19:17:25.137Z,16.47
2018-11-04T19:19:53.311Z,14.90
2018-11-04T19:22:21.490Z,17.60
2018-11-04T19:24:49.684Z,18.23
2018-11-04T19:27:26.325Z,17.53
2018-11-04T19:29:54.938Z,16.33
2018-11-04T19:32:23.277Z,18.17
2018-11-04T19:34:51.447Z,16.43
2018-11-04T19:37:19.665Z,15.90
2018-11-04T19:39:47.795Z,17.93
2018-11-04T19:42:16.006Z,16.47
2018-11-04T19:44:44.149Z,17.23
2018-11-04T19:47:12.347Z,17.03
2018-11-04T19:49:41.474Z,17.10
2018-11-04T19:52:09.677Z,16.90
2018-11-04T19:54:37.861Z,16.37
2018-11-04T19:57:06.388Z,16.73
2018-11-04T19:59:34.774Z,14.63
2018-11-04T20:02:02.955Z,17.57
2018-11-04T20:04:31.095Z,16.33
2018-11-04T20:06:59.290Z,16.10
2018-11-04T20:09:27.509Z,16.47
2018-11-04T20:11:55.988Z,16.43
2018-11-04T20:14:24.669Z,16.03
2018-11-04T20:16:54.206Z,15.77
2018-11-04T20:19:27.702Z,17.07
2018-11-04T20:21:56.250Z,16.83
2018-11-04T20:24:29.758Z,17.30
2018-11-04T20:26:57.902Z,17.50
2018-11-04T20:29:27.033Z,17.77
2018-11-04T20:32:00.681Z,16.77
2018-11-04T20:34:28.859Z,16.63
2018-11-04T20:36:57.007Z,16.83
2018-11-04T20:39:30.778Z,15.77
2018-11-04T20:41:58.919Z,16.73
2018-11-04T20:44:27.058Z,16.83
2018-11-04T20:46:55.241Z,16.60
2018-11-04T20:49:28.923Z,15.53
2018-11-04T20:51:57.105Z,16.03
2018-11-04T20:54:25.241Z,17.80
2018-11-04T20:56:58.864Z,16.63
2018-11-04T20:59:27.041Z,16.50
2018-11-04T21:01:55.229Z,14.37
2018-11-04T21:04:23.370Z,14.50
2018-11-04T21:06:51.553Z,14.90
2018-11-04T21:09:19.689Z,14.83
2018-11-04T21:11:48.634Z,15.97
2018-11-04T21:14:16.846Z,16.47
2018-11-04T21:16:45.121Z,16.77
2018-11-04T21:19:13.122Z,16.47
2018-11-04T21:21:41.305Z,17.17
2018-11-04T21:24:09.399Z,17.13
2018-11-04T21:26:37.533Z,16.10
2018-11-04T21:29:05.859Z,17.27
2018-11-04T21:31:33.799Z,16.83
2018-11-04T21:34:01.950Z,17.77
2018-11-04T21:36:30.195Z,18.50
2018-11-04T21:38:58.266Z,18.23
2018-11-04T21:41:26.416Z,17.87
2018-11-04T21:43:54.723Z,16.87
2018-11-04T21:46:22.717Z,17.43
2018-11-04T21:48:50.905Z,15.90
2018-11-04T21:51:19.059Z,16.73
2018-11-04T21:53:47.193Z,17.20
2018-11-04T21:56:15.469Z,18.57
2018-11-04T21:58:43.507Z,17.40
2018-11-04T22:01:11.613Z,18.97
2018-11-04T22:03:39.830Z,17.40
2018-11-04T22:06:07.970Z,18.53
2018-11-04T22:08:36.101Z,16.90
2018-11-04T22:11:04.266Z,18.03
2018-11-04T22:13:32.427Z,18.37
2018-11-04T22:16:00.557Z,18.27
2018-11-04T22:18:28.728Z,19.30
2018-11-04T22:20:56.854Z,17.63
2018-11-04T22:23:25.150Z,18.97
2018-11-04T22:25:53.294Z,18.10
2018-11-04T22:28:21.456Z,18.47
2018-11-04T22:30:49.622Z,18.40
2018-11-04T22:33:17.783Z,19.83
2018-11-04T22:35:45.922Z,20.63
2018-11-04T22:38:14.086Z,18.57
2018-11-04T22:40:42.211Z,19.40
2018-11-04T22:43:10.373Z,21.50
2018-11-04T22:45:38.539Z,19.93
2018-11-04T22:48:06.676Z,17.67
2018-11-04T22:50:34.917Z,19.57
2018-11-04T22:53:03.083Z,19.50
2018-11-04T22:55:31.241Z,19.17
2018-11-04T22:58:06.417Z,19.00
2018-11-04T23:00:40.255Z,18.00
2018-11-04T23:03:08.563Z,18.00
2018-11-04T23:05:36.748Z,17.80
2018-11-04T23:10:30.681Z,18.87
2018-11-04T23:12:58.870Z,19.50
2018-11-04T23:15:27.118Z,17.07
2018-11-04T23:17:55.258Z,16.57
2018-11-04T23:20:23.475Z,17.10
2018-11-04T23:22:51.592Z,14.63
2018-11-04T23:25:19.772Z,17.80
2018-11-04T23:27:47.926Z,15.73
2018-11-04T23:30:17.392Z,15.70
2018-11-04T23:32:46.215Z,16.03
2018-11-04T23:35:14.394Z,17.00
2018-11-04T23:37:43.325Z,15.87
2018-11-04T23:40:11.761Z,17.73
2018-11-04T23:42:40.016Z,17.27
2018-11-04T23:45:09.478Z,18.10
2018-11-04T23:47:37.734Z,16.87
2018-11-04T23:50:07.894Z,17.20
2018-11-04T23:52:36.046Z,17.93
2018-11-04T23:55:04.342Z,16.97
2018-11-04T23:57:32.481Z,16.13
